Time;durP1;ratioP1;P1;durP2;ratioP2;P2;SDS_P1;SDS_P2;PMS_P1;PMS_P2;Temp;Humidity;BMP_temperature;BMP_pressure;BME280_temperature;BME280_humidity;BME280_pressure;Samples;Min_cycle;Max_cycle;Signal;HPM_P1;HPM_P2
2022/08/02 00:00:30;;;;;;;4.60;2.20;;;;;19.20;97295.60;;;;111052;1247;41411;-68
2022/08/02 00:03:06;;;;;;;4.50;1.90;;;;;19.20;97294.40;;;;111072;1247;41377;-68
2022/08/02 00:05:36;;;;;;;4.60;2.10;;;;;19.18;97290.20;;;;111096;1247;41890;-68
2022/08/02 00:08:05;;;;;;;3.70;1.80;;;;;19.10;97290.80;;;;111103;1247;41357;-69
2022/08/02 00:10:35;;;;;;;3.90;2.00;;;;;19.10;97290.00;;;;111075;1248;41152;-69
2022/08/02 00:13:06;;;;;;;4.00;2.00;;;;;19.00;97291.40;;;;111119;1247;41583;-69
2022/08/02 00:15:35;;;;;;;5.00;2.10;;;;;18.92;97294.20;;;;111181;1247;41253;-69
2022/08/02 00:18:05;;;;;;;3.00;1.80;;;;;18.94;97295.40;;;;111074;1247;41137;-69
2022/08/02 00:20:35;;;;;;;6.80;2.50;;;;;18.96;97293.40;;;;111052;1248;42019;-70
2022/08/02 00:23:04;;;;;;;4.10;2.20;;;;;19.00;97302.80;;;;111198;1247;41600;-68
2022/08/02 00:25:33;;;;;;;4.80;1.90;;;;;18.90;97302.00;;;;111061;1248;41232;-69
2022/08/02 00:28:03;;;;;;;3.30;1.80;;;;;18.90;97296.80;;;;111181;1248;42583;-68
2022/08/02 00:30:33;;;;;;;5.30;2.10;;;;;18.90;97297.40;;;;111118;1248;41256;-69
2022/08/02 00:33:04;;;;;;;5.30;2.20;;;;;18.80;97299.20;;;;111134;1247;41718;-69
2022/08/02 00:35:35;;;;;;;5.40;2.40;;;;;18.80;97305.20;;;;111325;1248;41146;-69
2022/08/02 00:38:04;;;;;;;6.30;2.40;;;;;18.70;97300.20;;;;111239;1247;41249;-69
2022/08/02 00:40:33;;;;;;;5.80;2.30;;;;;18.62;97297.40;;;;111136;1247;41240;-68
2022/08/02 00:43:07;;;;;;;5.80;2.40;;;;;18.60;97292.40;;;;111160;1248;41149;-70
2022/08/02 00:45:38;;;;;;;5.00;2.20;;;;;18.60;97290.00;;;;111105;1247;41147;-70
2022/08/02 00:48:28;;;;;;;6.10;2.30;;;;;18.50;97294.00;;;;111180;1248;41609;-69
2022/08/02 00:50:58;;;;;;;9.00;2.80;;;;;18.50;97294.60;;;;111090;1248;41637;-68
2022/08/02 00:53:29;;;;;;;6.40;2.50;;;;;18.50;97297.00;;;;111138;1248;41152;-69
2022/08/02 00:56:00;;;;;;;6.90;2.80;;;;;18.50;97301.00;;;;111074;1247;41143;-69
2022/08/02 00:58:29;;;;;;;5.10;2.10;;;;;18.40;97303.20;;;;111124;1248;41136;-69
2022/08/02 01:01:00;;;;;;;3.70;2.00;;;;;18.30;97307.20;;;;111165;1247;41149;-69
2022/08/02 01:03:30;;;;;;;4.70;2.10;;;;;18.30;97303.00;;;;111149;1247;42484;-68
2022/08/02 01:05:59;;;;;;;4.00;2.00;;;;;18.30;97308.60;;;;111176;1247;41136;-69
2022/08/02 01:08:44;;;;;;;4.70;1.80;;;;;18.30;97307.60;;;;111112;1248;41175;-68
2022/08/02 01:11:14;;;;;;;3.40;2.00;;;;;18.30;97306.20;;;;111185;1248;41825;-68
2022/08/02 01:13:45;;;;;;;3.90;1.80;;;;;18.30;97308.80;;;;111199;1247;41150;-68
2022/08/02 01:16:18;;;;;;;4.80;2.20;;;;;18.30;97307.40;;;;111245;1247;41719;-68
2022/08/02 01:18:54;;;;;;;3.70;2.00;;;;;18.30;97306.20;;;;110595;1248;692843;-68
2022/08/02 01:21:54;;;;;;;5.10;2.20;;;;;18.26;97304.80;;;;111204;1247;41271;-68
2022/08/02 01:24:36;;;;;;;7.40;2.60;;;;;18.16;97303.80;;;;111103;1247;41131;-69
2022/08/02 01:27:23;;;;;;;6.10;2.70;;;;;18.00;97304.60;;;;111114;1247;41610;-68
2022/08/02 01:29:58;;;;;;;6.90;2.70;;;;;18.00;97311.00;;;;111091;1247;41568;-69
2022/08/02 01:32:36;;;;;;;4.10;2.00;;;;;18.00;97311.40;;;;111015;1250;42361;-68
2022/08/02 01:35:21;;;;;;;4.90;2.20;;;;;17.90;97311.60;;;;111074;1248;41124;-70
2022/08/02 01:38:09;;;;;;;5.20;2.10;;;;;17.90;97306.60;;;;111070;1247;41262;-68
2022/08/02 01:40:43;;;;;;;3.40;1.80;;;;;17.80;97308.20;;;;111082;1247;41722;-68
2022/08/02 01:43:14;;;;;;;4.50;2.00;;;;;17.80;97308.60;;;;111120;1247;41373;-68
2022/08/02 01:45:45;;;;;;;4.30;2.10;;;;;17.80;97309.20;;;;111183;1247;41617;-69
2022/08/02 01:48:18;;;;;;;4.40;1.90;;;;;17.80;97305.40;;;;111287;1248;41124;-69
2022/08/02 01:50:49;;;;;;;3.90;1.90;;;;;17.70;97310.20;;;;111100;1247;41853;-69
2022/08/02 01:53:21;;;;;;;4.90;2.10;;;;;17.70;97308.40;;;;111184;1247;41159;-69
2022/08/02 01:55:54;;;;;;;5.30;2.40;;;;;17.70;97304.20;;;;111143;1247;41161;-68
2022/08/02 01:58:31;;;;;;;5.80;2.50;;;;;17.70;97302.00;;;;111175;1247;41169;-68
2022/08/02 02:01:03;;;;;;;5.70;2.60;;;;;17.60;97304.40;;;;111082;1247;41158;-68
2022/08/02 02:03:34;;;;;;;5.00;2.20;;;;;17.62;97304.40;;;;111142;1247;41151;-67
2022/08/02 02:06:09;;;;;;;6.50;2.80;;;;;17.68;97301.80;;;;111166;1246;41143;-67
2022/08/02 02:08:43;;;;;;;7.00;2.80;;;;;17.70;97305.40;;;;111098;1248;41155;-68
2022/08/02 02:11:14;;;;;;;4.00;2.00;;;;;17.70;97299.60;;;;111177;1248;41141;-67
2022/08/02 02:14:07;;;;;;;5.00;2.20;;;;;17.66;97295.80;;;;111146;1249;41183;-67
2022/08/02 02:16:40;;;;;;;5.10;2.30;;;;;17.60;97302.40;;;;111127;1247;41248;-68
2022/08/02 02:19:15;;;;;;;4.80;2.40;;;;;17.60;97303.60;;;;111119;1248;41196;-68
2022/08/02 02:21:51;;;;;;;5.90;2.60;;;;;17.60;97301.60;;;;110853;1248;41213;-67
2022/08/02 02:24:22;;;;;;;5.30;2.30;;;;;17.60;97304.80;;;;111184;1247;41607;-67
2022/08/02 02:26:53;;;;;;;6.70;2.10;;;;;17.60;97307.00;;;;111085;1247;42002;-67
2022/08/02 02:29:26;;;;;;;3.80;1.90;;;;;17.60;97310.20;;;;111099;1247;41687;-67
2022/08/02 02:31:58;;;;;;;3.80;1.90;;;;;17.60;97308.80;;;;111176;1247;41494;-69
2022/08/02 02:34:33;;;;;;;3.70;1.80;;;;;17.56;97302.80;;;;111316;1247;41146;-67
2022/08/02 02:37:08;;;;;;;3.30;1.70;;;;;17.50;97304.00;;;;111063;1247;42377;-68
2022/08/02 02:39:39;;;;;;;5.70;2.10;;;;;17.50;97302.40;;;;111166;1249;42416;-67
2022/08/02 02:42:13;;;;;;;4.50;2.00;;;;;17.40;97303.40;;;;111284;1247;41191;-67
2022/08/02 02:44:44;;;;;;;5.10;2.40;;;;;17.40;97298.80;;;;111286;1247;41760;-66
2022/08/02 02:47:16;;;;;;;5.10;2.10;;;;;17.40;97299.20;;;;111076;1247;42172;-67
2022/08/02 02:49:48;;;;;;;5.10;2.20;;;;;17.36;97300.20;;;;111205;1247;41601;-67
2022/08/02 02:52:19;;;;;;;;;;;;;17.30;97303.40;;;;111048;1250;41265;-69
2022/08/02 02:54:51;;;;;;;6.30;3.00;;;;;17.30;97305.00;;;;111217;1247;41257;-68
2022/08/02 02:57:22;;;;;;;6.70;3.10;;;;;17.20;97303.80;;;;111241;1247;41248;-67
2022/08/02 02:59:53;;;;;;;7.30;2.70;;;;;17.10;97308.00;;;;111356;1247;41525;-68
2022/08/02 03:02:23;;;;;;;4.00;2.00;;;;;17.10;97312.60;;;;111041;1249;42280;-69
2022/08/02 03:04:54;;;;;;;3.90;1.90;;;;;17.10;97315.00;;;;111341;1247;41613;-68
2022/08/02 03:07:28;;;;;;;4.20;2.00;;;;;17.18;97314.80;;;;111203;1247;41702;-68
2022/08/02 03:10:00;;;;;;;3.40;1.90;;;;;17.20;97318.40;;;;111162;1247;41258;-69
2022/08/02 03:12:30;;;;;;;4.80;1.90;;;;;17.22;97320.40;;;;111296;1247;41137;-69
2022/08/02 03:15:05;;;;;;;5.30;2.20;;;;;17.30;97316.60;;;;111304;1247;41153;-68
2022/08/02 03:17:39;;;;;;;3.90;2.10;;;;;17.30;97317.40;;;;111185;1247;41828;-68
2022/08/02 03:20:16;;;;;;;5.00;2.20;;;;;17.30;97322.40;;;;111179;1247;41228;-68
2022/08/02 03:22:48;;;;;;;4.10;2.20;;;;;17.30;97323.60;;;;111259;1247;42404;-68
2022/08/02 03:25:17;;;;;;;3.90;1.90;;;;;17.34;97330.40;;;;111272;1247;41641;-69
2022/08/02 03:27:46;;;;;;;4.80;2.10;;;;;17.40;97328.20;;;;111385;1247;41117;-68
2022/08/02 03:30:15;;;;;;;4.40;2.10;;;;;17.40;97330.00;;;;111205;1247;42552;-69
2022/08/02 03:32:46;;;;;;;7.20;2.20;;;;;17.50;97323.00;;;;111239;1247;42377;-68
2022/08/02 03:35:17;;;;;;;4.70;2.20;;;;;17.50;97325.80;;;;111150;1248;41152;-69
2022/08/02 03:37:53;;;;;;;3.40;1.80;;;;;17.60;97326.60;;;;111143;1247;41248;-69
2022/08/02 03:40:22;;;;;;;5.30;2.30;;;;;17.60;97332.60;;;;111280;1250;41144;-68
2022/08/02 03:42:53;;;;;;;6.00;2.10;;;;;17.70;97329.80;;;;111194;1247;41127;-69
2022/08/02 03:45:23;;;;;;;5.60;2.40;;;;;17.70;97333.40;;;;111297;1247;41264;-69
2022/08/02 03:47:52;;;;;;;7.10;2.80;;;;;17.70;97332.80;;;;111401;1247;41284;-69
2022/08/02 03:50:22;;;;;;;6.20;2.70;;;;;17.78;97337.40;;;;111293;1246;41152;-68
2022/08/02 03:52:51;;;;;;;5.30;2.30;;;;;17.76;97337.60;;;;111271;1247;41536;-68
2022/08/02 03:55:21;;;;;;;5.10;2.30;;;;;17.80;97338.80;;;;111281;1247;41150;-70
2022/08/02 03:57:53;;;;;;;4.60;2.00;;;;;17.80;97343.60;;;;111313;1247;41248;-68
2022/08/02 04:00:22;;;;;;;5.20;2.40;;;;;17.88;97348.20;;;;111465;1249;41246;-70
2022/08/02 04:02:52;;;;;;;4.90;2.20;;;;;17.90;97348.00;;;;111417;1247;40918;-70
2022/08/02 04:05:20;;;;;;;4.80;2.10;;;;;17.92;97351.20;;;;111185;1248;41433;-69
2022/08/02 04:07:51;;;;;;;7.60;2.30;;;;;18.00;97347.40;;;;111330;1247;41295;-67
2022/08/02 04:13:31;;;;;;;5.00;2.30;;;;;18.10;97349.40;;;;111240;1247;41264;-67
2022/08/02 04:16:14;;;;;;;4.70;2.10;;;;;18.20;97355.00;;;;111228;1247;41199;-67
2022/08/02 04:19:04;;;;;;;4.90;2.30;;;;;18.26;97350.60;;;;111256;1247;41264;-66
2022/08/02 04:21:35;;;;;;;4.70;2.20;;;;;18.34;97348.40;;;;111323;1247;41257;-67
2022/08/02 04:24:18;;;;;;;4.30;2.10;;;;;18.42;97343.20;;;;111237;1247;42308;-67
2022/08/02 04:26:48;;;;;;;5.80;2.60;;;;;18.50;97345.40;;;;111231;1247;41152;-67
2022/08/02 04:29:17;;;;;;;4.70;2.40;;;;;18.60;97345.60;;;;111194;1247;41486;-68
2022/08/02 04:31:47;;;;;;;5.90;2.90;;;;;18.80;97344.00;;;;111164;1248;41167;-67
2022/08/02 04:34:16;;;;;;;7.10;3.20;;;;;18.90;97342.40;;;;111103;1249;41185;-67
2022/08/02 04:36:46;;;;;;;9.20;3.50;;;;;19.00;97341.40;;;;111402;1248;41140;-71
2022/08/02 04:39:15;;;;;;;8.10;3.50;;;;;19.10;97345.80;;;;111112;1247;41614;-66
2022/08/02 04:41:46;;;;;;;7.20;3.30;;;;;19.10;97344.00;;;;110895;1250;41616;-71
2022/08/02 04:44:15;;;;;;;;;;;;;19.00;97343.80;;;;111294;1249;41173;-70
2022/08/02 04:46:44;;;;;;;6.30;2.80;;;;;19.00;97341.40;;;;111109;1248;41130;-69
2022/08/02 04:49:13;;;;;;;6.10;2.60;;;;;19.10;97340.80;;;;111094;1249;41157;-69
2022/08/02 04:51:43;;;;;;;6.50;2.90;;;;;19.10;97344.20;;;;111415;1247;41158;-71
2022/08/02 04:54:12;;;;;;;8.50;3.10;;;;;19.20;97345.80;;;;111417;1248;42012;-68
2022/08/02 04:56:42;;;;;;;7.20;3.40;;;;;19.20;97351.80;;;;111253;1247;41763;-69
2022/08/02 04:59:11;;;;;;;9.40;2.90;;;;;19.20;97352.20;;;;111209;1247;41808;-69
2022/08/02 05:01:41;;;;;;;5.40;2.50;;;;;19.20;97357.20;;;;111326;1247;41171;-69
2022/08/02 05:04:11;;;;;;;7.30;3.10;;;;;19.20;97353.60;;;;111247;1247;41158;-69
2022/08/02 05:06:41;;;;;;;8.30;2.70;;;;;19.30;97357.00;;;;111252;1247;41146;-69
2022/08/02 05:09:10;;;;;;;7.50;3.00;;;;;19.40;97356.40;;;;111146;1248;42590;-69
2022/08/02 05:11:39;;;;;;;4.20;2.10;;;;;19.54;97339.60;;;;111144;1248;41266;-68
2022/08/02 05:14:08;;;;;;;4.90;2.20;;;;;20.24;97352.40;;;;111318;1248;41129;-69
2022/08/02 05:16:37;;;;;;;7.70;3.50;;;;;20.98;97345.80;;;;111190;1249;41404;-68
2022/08/02 05:19:07;;;;;;;7.70;2.90;;;;;21.20;97349.60;;;;111348;1248;41134;-69
2022/08/02 05:21:36;;;;;;;6.60;2.50;;;;;21.20;97351.20;;;;111196;1248;41547;-69
2022/08/02 05:24:06;;;;;;;5.10;2.30;;;;;21.20;97351.00;;;;111259;1245;41919;-69
2022/08/02 05:26:34;;;;;;;5.60;2.40;;;;;21.20;97357.40;;;;111318;1247;42146;-69
2022/08/02 05:29:03;;;;;;;4.80;2.20;;;;;21.08;97363.60;;;;111018;1247;41400;-70
2022/08/02 05:31:32;;;;;;;6.30;2.20;;;;;21.00;97363.60;;;;110994;1248;41461;-71
2022/08/02 05:34:01;;;;;;;4.70;2.30;;;;;21.00;97367.60;;;;111353;1247;41152;-68
2022/08/02 05:36:30;;;;;;;4.90;2.20;;;;;21.56;97339.60;;;;111209;1248;41490;-69
2022/08/02 05:38:59;;;;;;;4.10;1.90;;;;;21.98;97372.40;;;;111384;1248;41341;-69
2022/08/02 05:41:32;;;;;;;4.40;2.20;;;;;22.30;97367.40;;;;111264;1247;41143;-69
2022/08/02 05:44:01;;;;;;;5.10;2.30;;;;;22.56;97342.00;;;;111207;1247;41258;-71
2022/08/02 05:46:30;;;;;;;8.10;2.60;;;;;23.36;97353.20;;;;111298;1248;41676;-68
2022/08/02 05:48:59;;;;;;;6.30;2.80;;;;;24.14;97347.00;;;;111226;1248;41985;-71
2022/08/02 05:51:38;;;;;;;6.10;2.60;;;;;24.94;97354.20;;;;111208;1247;41170;-70
2022/08/02 05:54:16;;;;;;;4.30;2.00;;;;;25.20;97363.20;;;;111249;1248;41119;-70
2022/08/02 05:57:10;;;;;;;6.00;2.30;;;;;25.30;97370.20;;;;111448;1247;41648;-70
2022/08/02 06:00:04;;;;;;;5.00;2.00;;;;;25.00;97376.40;;;;111202;1246;41616;-70
2022/08/02 06:02:41;;;;;;;4.80;2.10;;;;;24.80;97376.40;;;;111323;1247;41152;-72
2022/08/02 06:05:11;;;;;;;3.70;1.90;;;;;24.70;97380.60;;;;111068;1248;41785;-72
2022/08/02 06:07:42;;;;;;;3.70;1.80;;;;;24.60;97385.00;;;;111114;1248;41713;-71
2022/08/02 06:10:13;;;;;;;4.90;2.20;;;;;24.50;97382.00;;;;111220;1248;41467;-70
2022/08/02 06:12:50;;;;;;;5.30;2.00;;;;;24.60;97387.80;;;;111259;1247;41672;-69
2022/08/02 06:15:19;;;;;;;5.40;2.10;;;;;24.70;97391.40;;;;111054;1249;41177;-68
2022/08/02 06:17:48;;;;;;;6.40;2.60;;;;;24.82;97390.00;;;;111190;1248;41157;-69
2022/08/02 06:20:19;;;;;;;4.80;2.30;;;;;24.98;97388.60;;;;111203;1248;41131;-68
2022/08/02 06:22:48;;;;;;;3.50;1.80;;;;;24.94;97392.80;;;;111105;1248;41247;-68
2022/08/02 06:25:18;;;;;;;4.80;2.00;;;;;25.20;97391.20;;;;111148;1248;42259;-69
2022/08/02 06:28:08;;;;;;;7.70;3.10;;;;;25.24;97391.80;;;;111049;1249;41155;-69
2022/08/02 06:30:39;;;;;;;7.40;2.60;;;;;24.74;97396.40;;;;111076;1247;41205;-69
2022/08/02 06:33:08;;;;;;;6.50;2.20;;;;;24.34;97396.40;;;;111070;1248;41137;-69
2022/08/02 06:36:03;;;;;;;6.00;2.30;;;;;24.10;97398.40;;;;111178;1248;41434;-68
2022/08/02 06:38:34;;;;;;;6.00;2.20;;;;;23.78;97399.60;;;;111129;1248;41127;-67
2022/08/02 06:41:12;;;;;;;4.30;1.90;;;;;23.80;97403.80;;;;111060;1246;41580;-66
2022/08/02 06:43:44;;;;;;;3.80;2.00;;;;;23.70;97400.40;;;;111148;1248;41149;-68
2022/08/02 06:46:13;;;;;;;6.70;2.70;;;;;23.70;97403.00;;;;111000;1250;41178;-67
2022/08/02 06:49:03;;;;;;;7.30;2.30;;;;;24.04;97400.00;;;;111179;1250;42630;-68
2022/08/02 06:51:32;;;;;;;7.70;2.50;;;;;25.06;97391.00;;;;111200;1249;41148;-67
2022/08/02 06:54:01;;;;;;;6.00;2.40;;;;;26.14;97391.20;;;;110824;1250;41427;-68
2022/08/02 06:56:30;;;;;;;4.30;2.00;;;;;26.90;97389.40;;;;111048;1249;41163;-69
2022/08/02 06:58:58;;;;;;;4.40;2.00;;;;;26.90;97395.20;;;;110653;1250;41905;-67
2022/08/02 07:01:31;;;;;;;6.50;2.10;;;;;26.80;97398.80;;;;111046;1248;41254;-69
2022/08/02 07:04:06;;;;;;;5.60;2.40;;;;;26.60;97397.20;;;;111137;1248;41120;-69
2022/08/02 07:06:35;;;;;;;4.90;2.10;;;;;26.22;97397.60;;;;111191;1248;41931;-69
2022/08/02 07:09:03;;;;;;;4.40;2.00;;;;;25.84;97403.20;;;;111154;1248;41763;-69
2022/08/02 07:11:49;;;;;;;4.20;1.80;;;;;25.68;97401.00;;;;111100;1248;41351;-69
2022/08/02 07:14:18;;;;;;;5.70;2.00;;;;;25.60;97392.00;;;;111117;1247;41731;-69
2022/08/02 07:16:46;;;;;;;4.10;1.90;;;;;26.68;97394.00;;;;111104;1247;41296;-68
2022/08/02 07:19:15;;;;;;;4.90;2.00;;;;;27.54;97389.80;;;;111056;1248;41134;-68
2022/08/02 07:21:43;;;;;;;3.90;1.80;;;;;28.00;97388.60;;;;111076;1247;41137;-68
2022/08/02 07:24:25;;;;;;;5.20;2.00;;;;;28.08;97389.20;;;;111051;1248;41161;-68
2022/08/02 07:26:53;;;;;;;15.80;2.20;;;;;27.90;97389.40;;;;111072;1247;41939;-68
2022/08/02 07:29:39;;;;;;;6.40;2.20;;;;;27.60;97391.20;;;;111060;1247;41257;-69
2022/08/02 07:32:18;;;;;;;4.40;2.00;;;;;27.54;97395.60;;;;111041;1248;41611;-68
2022/08/02 07:34:47;;;;;;;7.30;2.20;;;;;27.42;97395.60;;;;111065;1246;41760;-68
2022/08/02 07:37:22;;;;;;;3.30;1.80;;;;;27.30;97399.20;;;;111065;1248;41293;-68
2022/08/02 07:40:12;;;;;;;6.40;2.10;;;;;27.28;97402.00;;;;111016;1249;41543;-68
2022/08/02 07:42:43;;;;;;;5.50;2.10;;;;;27.30;97406.80;;;;111067;1248;42188;-68
2022/08/02 07:45:12;;;;;;;4.50;1.80;;;;;27.42;97403.40;;;;111103;1247;41284;-68
2022/08/02 07:47:43;;;;;;;4.80;2.00;;;;;27.62;97400.60;;;;111123;1248;41266;-69
2022/08/02 07:50:13;;;;;;;3.50;1.80;;;;;27.80;97399.80;;;;111123;1248;41461;-68
2022/08/02 07:52:43;;;;;;;4.50;2.10;;;;;27.74;97400.80;;;;111033;1247;42265;-68
2022/08/02 07:55:13;;;;;;;5.20;1.90;;;;;27.60;97402.80;;;;111042;1248;41606;-68
2022/08/02 07:57:43;;;;;;;3.70;1.70;;;;;27.54;97404.80;;;;111063;1249;42230;-68
2022/08/02 08:00:15;;;;;;;4.80;2.10;;;;;27.50;97406.00;;;;111107;1248;42389;-68
2022/08/02 08:02:45;;;;;;;4.60;2.10;;;;;27.40;97405.20;;;;111034;1248;41712;-69
2022/08/02 08:05:14;;;;;;;5.30;1.90;;;;;27.10;97406.60;;;;111069;1247;42848;-68
2022/08/02 08:07:43;;;;;;;4.70;1.90;;;;;27.00;97408.00;;;;111122;1248;41609;-68
2022/08/02 08:10:12;;;;;;;5.60;2.10;;;;;26.86;97408.00;;;;111097;1248;41153;-68
2022/08/02 08:12:40;;;;;;;3.20;1.80;;;;;26.50;97411.40;;;;111057;1248;41149;-69
2022/08/02 08:15:09;;;;;;;4.80;2.20;;;;;26.40;97412.60;;;;111078;1248;41153;-69
2022/08/02 08:17:39;;;;;;;3.70;1.80;;;;;26.42;97417.80;;;;111193;1248;41140;-69
2022/08/02 08:20:08;;;;;;;4.20;1.90;;;;;26.50;97415.60;;;;111048;1249;41164;-68
2022/08/02 08:22:42;;;;;;;3.70;1.80;;;;;26.30;97419.40;;;;111047;1248;41891;-68
2022/08/02 08:25:11;;;;;;;4.30;1.90;;;;;26.10;97418.20;;;;110978;1247;41253;-68
2022/08/02 08:27:51;;;;;;;3.90;1.90;;;;;26.00;97414.60;;;;111092;1247;41155;-68
2022/08/02 08:30:21;;;;;;;5.30;2.20;;;;;25.90;97411.80;;;;111011;1250;41143;-68
2022/08/02 08:32:50;;;;;;;5.00;2.10;;;;;25.90;97419.20;;;;111109;1250;41386;-68
2022/08/02 08:35:19;;;;;;;4.70;2.20;;;;;25.78;97423.20;;;;111029;1250;41795;-68
2022/08/02 08:37:48;;;;;;;3.30;1.80;;;;;25.52;97421.80;;;;111150;1248;41157;-68
2022/08/02 08:40:18;;;;;;;3.90;1.90;;;;;25.50;97421.60;;;;110757;1251;42365;-68
2022/08/02 08:42:47;;;;;;;4.10;1.80;;;;;25.90;97417.20;;;;111159;1248;41251;-68
2022/08/02 08:45:16;;;;;;;4.90;2.00;;;;;26.62;97411.80;;;;111151;1248;42018;-69
2022/08/02 08:47:52;;;;;;;3.70;1.70;;;;;27.44;97410.20;;;;111136;1248;42400;-69
2022/08/02 08:50:24;;;;;;;3.50;1.80;;;;;28.26;97411.20;;;;111180;1248;41238;-69
2022/08/02 08:53:04;;;;;;;5.30;2.00;;;;;28.50;97408.20;;;;110787;1250;41145;-69
2022/08/02 08:55:35;;;;;;;1.90;1.50;;;;;28.50;97404.80;;;;111050;1250;41141;-69
2022/08/02 08:58:05;;;;;;;4.50;1.80;;;;;29.04;97409.40;;;;110898;1249;41140;-69
2022/08/02 09:00:35;;;;;;;3.70;1.80;;;;;29.04;97409.80;;;;111214;1247;41148;-69
2022/08/02 09:03:04;;;;;;;;;;;;;28.80;97411.00;;;;110772;1248;41632;-68
2022/08/02 09:05:34;;;;;;;3.40;1.60;;;;;28.50;97415.20;;;;111208;1248;41636;-68
2022/08/02 09:08:04;;;;;;;3.00;1.50;;;;;28.26;97418.60;;;;111101;1248;41908;-68
2022/08/02 09:10:34;;;;;;;2.30;1.50;;;;;28.00;97415.60;;;;111094;1248;41242;-68
2022/08/02 09:13:09;;;;;;;5.60;1.90;;;;;27.70;97418.40;;;;111067;1249;41151;-68
2022/08/02 09:16:02;;;;;;;3.90;1.80;;;;;27.76;97402.60;;;;111071;1248;41626;-70
2022/08/02 09:18:44;;;;;;;4.10;1.80;;;;;29.24;97402.60;;;;111270;1248;41149;-68
2022/08/02 09:21:15;;;;;;;3.30;1.60;;;;;30.30;97400.40;;;;111078;1248;41154;-69
2022/08/02 09:23:47;;;;;;;3.30;1.60;;;;;30.38;97399.40;;;;111219;1247;41719;-69
2022/08/02 09:26:22;;;;;;;3.60;1.60;;;;;30.40;97407.40;;;;110690;1251;41383;-69
2022/08/02 09:28:58;;;;;;;7.30;1.60;;;;;29.80;97410.80;;;;111177;1249;41292;-69
2022/08/02 09:31:28;;;;;;;2.30;1.40;;;;;29.50;97406.40;;;;111052;1248;41253;-69
2022/08/02 09:33:58;;;;;;;3.10;1.60;;;;;29.84;97398.20;;;;111069;1247;41239;-69
2022/08/02 09:36:27;;;;;;;;;;;;;30.60;97394.40;;;;111113;1248;41146;-69
2022/08/02 09:39:02;;;;;;;1.50;1.20;;;;;31.50;97394.20;;;;111086;1248;41159;-69
2022/08/02 09:41:35;;;;;;;3.00;1.50;;;;;32.50;97402.60;;;;111026;1249;42150;-69
2022/08/02 09:44:05;;;;;;;2.00;1.30;;;;;32.50;97401.00;;;;111073;1248;41169;-69
2022/08/02 09:46:37;;;;;;;3.00;1.40;;;;;31.68;97405.80;;;;111087;1248;41243;-69
2022/08/02 09:49:12;;;;;;;2.50;1.30;;;;;30.98;97403.40;;;;111033;1247;42082;-69
2022/08/02 09:51:51;;;;;;;2.20;1.50;;;;;30.34;97407.80;;;;111085;1248;41202;-69
2022/08/02 09:54:25;;;;;;;2.50;1.40;;;;;29.82;97409.00;;;;111272;1250;41288;-68
2022/08/02 09:56:56;;;;;;;3.60;1.40;;;;;29.40;97411.20;;;;111154;1249;41705;-68
2022/08/02 09:59:25;;;;;;;3.20;1.40;;;;;29.10;97410.60;;;;111099;1248;41167;-69
2022/08/02 10:01:55;;;;;;;3.30;1.50;;;;;28.70;97409.40;;;;111190;1247;41168;-68
2022/08/02 10:04:31;;;;;;;2.10;1.50;;;;;28.70;97411.00;;;;111175;1248;41906;-68
2022/08/02 10:07:04;;;;;;;2.30;1.40;;;;;28.70;97410.80;;;;111074;1250;41202;-70
2022/08/02 10:09:33;;;;;;;3.10;1.50;;;;;28.92;97408.40;;;;111229;1247;41138;-69
2022/08/02 10:12:04;;;;;;;3.70;1.70;;;;;30.18;97393.20;;;;111104;1249;41141;-70
2022/08/02 10:14:34;;;;;;;2.60;1.50;;;;;31.18;97379.60;;;;111192;1248;41193;-70
2022/08/02 10:17:04;;;;;;;2.60;1.30;;;;;31.60;97382.40;;;;111104;1248;42377;-70
2022/08/02 10:19:34;;;;;;;1.60;1.30;;;;;31.30;97387.80;;;;111270;1248;41262;-68
2022/08/02 10:22:23;;;;;;;3.70;1.40;;;;;30.80;97384.20;;;;111037;1248;41138;-69
2022/08/02 10:24:52;;;;;;;3.10;1.50;;;;;30.30;97385.60;;;;111067;1249;41362;-69
2022/08/02 10:27:23;;;;;;;3.60;1.50;;;;;30.10;97386.60;;;;111251;1247;41135;-69
2022/08/02 10:29:56;;;;;;;2.50;1.40;;;;;29.90;97396.60;;;;111079;1247;41148;-69
2022/08/02 10:32:32;;;;;;;3.30;1.30;;;;;29.70;97395.20;;;;111190;1248;41601;-69
2022/08/02 10:35:06;;;;;;;2.20;1.40;;;;;29.56;97388.20;;;;111181;1247;41969;-69
2022/08/02 10:37:49;;;;;;;2.70;1.50;;;;;30.10;97393.20;;;;111033;1247;42382;-69
2022/08/02 10:40:27;;;;;;;2.00;1.40;;;;;30.30;97391.60;;;;110660;1251;41146;-69
2022/08/02 10:42:58;;;;;;;3.20;1.50;;;;;30.30;97389.40;;;;110662;1251;42546;-69
2022/08/02 10:45:28;;;;;;;2.20;1.30;;;;;30.72;97378.40;;;;111179;1248;41019;-69
2022/08/02 10:47:57;;;;;;;2.00;1.30;;;;;31.28;97376.00;;;;110764;1251;41976;-69
2022/08/02 10:50:53;;;;;;;2.50;1.30;;;;;31.78;97369.80;;;;111025;1250;42160;-69
2022/08/02 10:53:33;;;;;;;4.20;1.70;;;;;32.10;97363.80;;;;110963;1250;41132;-69
2022/08/02 10:56:05;;;;;;;3.50;1.40;;;;;32.40;97353.60;;;;110955;1249;41212;-69
2022/08/02 10:58:36;;;;;;;2.00;1.40;;;;;32.30;97356.40;;;;111218;1248;41141;-70
2022/08/02 11:01:29;;;;;;;2.60;1.50;;;;;32.60;97350.40;;;;110834;1249;41843;-69
2022/08/02 11:04:06;;;;;;;1.80;1.30;;;;;32.64;97358.40;;;;111120;1248;41237;-69
2022/08/02 11:07:13;;;;;;;2.00;1.20;;;;;33.02;97358.40;;;;111028;1249;41734;-70
2022/08/02 11:09:49;;;;;;;1.30;1.20;;;;;33.48;97355.60;;;;111144;1249;42188;-71
2022/08/02 11:12:19;;;;;;;3.80;1.40;;;;;34.20;97356.60;;;;111157;1248;41152;-69
2022/08/02 11:15:04;;;;;;;1.20;1.00;;;;;34.98;97359.80;;;;111105;1248;41152;-68
2022/08/02 11:17:51;;;;;;;2.10;1.20;;;;;35.16;97348.80;;;;111064;1248;41130;-69
2022/08/02 11:20:22;;;;;;;2.40;1.20;;;;;36.02;97344.60;;;;111010;1250;41123;-70
2022/08/02 11:22:52;;;;;;;1.50;1.10;;;;;36.66;97338.00;;;;110897;1250;41128;-69
2022/08/02 11:25:21;;;;;;;1.80;1.10;;;;;37.54;97334.40;;;;110993;1250;41745;-70
2022/08/02 11:27:58;;;;;;;1.10;1.00;;;;;38.56;97338.20;;;;110699;1250;41735;-70
2022/08/02 11:30:27;;;;;;;2.00;1.00;;;;;39.24;97333.20;;;;110826;1250;41261;-71
2022/08/02 11:32:57;;;;;;;1.10;0.90;;;;;39.64;97330.80;;;;110795;1249;41222;-71
2022/08/02 11:35:37;;;;;;;2.20;1.40;;;;;39.22;97338.60;;;;111088;1249;41335;-71
2022/08/02 11:38:14;;;;;;;2.20;1.10;;;;;37.60;97346.20;;;;110681;1250;41238;-70
2022/08/02 11:40:45;;;;;;;4.20;1.20;;;;;36.56;97344.80;;;;110700;1248;42388;-70
2022/08/02 11:43:23;;;;;;;1.50;1.00;;;;;36.66;97347.40;;;;111023;1248;41641;-71
2022/08/02 11:45:52;;;;;;;1.30;1.10;;;;;37.56;97344.00;;;;111024;1250;41373;-71
2022/08/02 11:48:31;;;;;;;2.20;1.00;;;;;38.42;97336.20;;;;111082;1250;42371;-70
2022/08/02 11:51:10;;;;;;;1.60;1.10;;;;;39.28;97331.40;;;;111123;1247;41173;-71
2022/08/02 11:53:50;;;;;;;3.30;1.10;;;;;40.06;97329.40;;;;111187;1247;41158;-71
2022/08/02 11:56:31;;;;;;;1.20;1.10;;;;;40.78;97325.40;;;;111127;1248;41194;-71
2022/08/02 11:59:10;;;;;;;2.20;1.20;;;;;41.58;97328.20;;;;111245;1248;41466;-71
2022/08/02 12:01:42;;;;;;;2.40;1.10;;;;;42.10;97319.00;;;;111137;1248;41151;-72
2022/08/02 12:04:18;;;;;;;4.50;1.30;;;;;42.04;97319.00;;;;111209;1248;41272;-71
2022/08/02 12:06:54;;;;;;;2.70;1.20;;;;;41.60;97321.20;;;;111203;1247;42380;-71
2022/08/02 12:09:26;;;;;;;1.10;1.00;;;;;41.78;97313.80;;;;111020;1248;41248;-73
2022/08/02 12:11:55;;;;;;;4.00;1.30;;;;;41.52;97318.60;;;;111342;1247;41254;-72
2022/08/02 12:14:26;;;;;;;1.60;1.10;;;;;41.18;97324.20;;;;111048;1248;41160;-70
2022/08/02 12:19:43;;;;;;;2.10;1.40;;;;;40.06;97324.00;;;;111142;1248;41157;-71
2022/08/02 12:22:12;;;;;;;;;;;;;39.78;97325.20;;;;111125;1247;41152;-72
2022/08/02 12:24:42;;;;;;;;;;;;;40.32;97322.40;;;;111207;1246;41896;-72
2022/08/02 12:27:30;;;;;;;1.30;1.00;;;;;40.14;97322.40;;;;111063;1247;41887;-72
2022/08/02 12:30:19;;;;;;;2.30;1.10;;;;;40.22;97325.00;;;;111177;1247;41256;-72
2022/08/02 12:33:07;;;;;;;1.30;1.10;;;;;40.68;97323.40;;;;111149;1247;41140;-72
2022/08/02 12:35:40;;;;;;;2.10;1.10;;;;;40.50;97320.60;;;;111189;1247;42192;-72
2022/08/02 12:38:09;;;;;;;1.60;1.10;;;;;40.30;97325.40;;;;111394;1247;41248;-73
2022/08/02 12:40:38;;;;;;;1.60;0.90;;;;;40.14;97317.80;;;;111189;1247;41972;-72
2022/08/02 12:43:16;;;;;;;4.90;1.20;;;;;38.98;97323.40;;;;111346;1248;41142;-71